createdAt,value
2023-01-10T00:01:07.486Z,92.80
2023-01-10T00:03:34.852Z,92.80
2023-01-10T00:06:02.242Z,92.80
2023-01-10T00:08:29.546Z,92.80
2023-01-10T00:10:56.862Z,92.90
2023-01-10T00:13:25.492Z,93.00
2023-01-10T00:15:55.013Z,93.10
2023-01-10T00:18:22.909Z,93.40
2023-01-10T00:20:50.684Z,93.20
2023-01-10T00:23:18.542Z,93.20
2023-01-10T00:25:46.689Z,93.20
2023-01-10T00:28:20.406Z,93.10
2023-01-10T00:30:57.948Z,93.10
2023-01-10T00:33:25.375Z,92.90
2023-01-10T00:35:53.075Z,92.90
2023-01-10T00:38:20.717Z,92.70
2023-01-10T00:40:47.999Z,92.60
2023-01-10T00:43:33.906Z,92.60
2023-01-10T00:46:02.790Z,92.60
2023-01-10T00:48:30.333Z,92.80
2023-01-10T00:50:57.616Z,92.50
2023-01-10T00:53:25.067Z,92.40
2023-01-10T00:55:54.636Z,92.20
2023-01-10T00:58:23.600Z,91.90
2023-01-10T01:00:51.221Z,91.70
2023-01-10T01:03:21.520Z,91.60
2023-01-10T01:05:49.314Z,91.50
2023-01-10T01:08:17.996Z,91.80
2023-01-10T01:10:46.207Z,92.00
2023-01-10T01:13:17.786Z,92.30
2023-01-10T01:15:45.576Z,92.50
2023-01-10T01:18:15.891Z,92.70
2023-01-10T01:20:45.705Z,92.80
2023-01-10T01:23:13.847Z,92.90
2023-01-10T01:25:41.677Z,92.90
2023-01-10T01:28:12.205Z,93.10
2023-01-10T01:30:40.067Z,93.30
2023-01-10T01:33:08.136Z,93.50
2023-01-10T01:35:35.552Z,93.60
2023-01-10T01:38:02.992Z,93.60
2023-01-10T01:40:30.658Z,93.70
2023-01-10T01:42:58.108Z,94.00
2023-01-10T01:45:38.843Z,94.00
2023-01-10T01:48:15.330Z,94.30
2023-01-10T01:51:05.702Z,94.10
2023-01-10T01:54:07.940Z,94.10
2023-01-10T01:56:42.830Z,94.00
2023-01-10T01:59:24.868Z,94.00
2023-01-10T02:02:00.481Z,94.00
2023-01-10T02:04:32.165Z,93.80
2023-01-10T02:06:59.708Z,93.50
2023-01-10T02:09:48.375Z,93.40
2023-01-10T02:12:16.100Z,93.40
2023-01-10T02:14:45.289Z,93.40
2023-01-10T02:17:13.092Z,93.50
2023-01-10T02:20:03.777Z,93.50
2023-01-10T02:22:55.651Z,93.40
2023-01-10T02:25:51.272Z,93.50
2023-01-10T02:28:37.261Z,93.70
2023-01-10T02:31:26.644Z,93.80
2023-01-10T02:34:18.206Z,93.90
2023-01-10T02:37:16.609Z,94.00
2023-01-10T02:40:36.075Z,93.90
2023-01-10T02:43:06.439Z,94.10
2023-01-10T02:45:57.999Z,94.00
2023-01-10T02:48:25.468Z,94.10
2023-01-10T02:51:00.223Z,94.20
2023-01-10T02:53:29.522Z,94.20
2023-01-10T02:56:02.177Z,94.30
2023-01-10T02:58:51.320Z,94.40
2023-01-10T03:01:45.044Z,94.40
2023-01-10T03:04:45.684Z,94.40
2023-01-10T03:07:25.423Z,94.30
2023-01-10T03:10:18.081Z,94.10
2023-01-10T03:13:12.956Z,94.00
2023-01-10T03:15:42.361Z,94.00
2023-01-10T03:18:18.831Z,94.10
2023-01-10T03:20:48.097Z,94.40
2023-01-10T03:23:19.022Z,94.50
2023-01-10T03:25:49.693Z,94.80
2023-01-10T03:28:25.295Z,95.10
2023-01-10T03:31:05.933Z,95.10
2023-01-10T03:33:34.608Z,95.30
2023-01-10T03:36:01.867Z,95.60
2023-01-10T03:38:51.519Z,95.70
2023-01-10T03:41:21.537Z,96.00
2023-01-10T03:44:15.601Z,96.10
2023-01-10T03:46:54.371Z,96.30
2023-01-10T03:49:24.952Z,96.50
2023-01-10T03:51:54.074Z,97.20
2023-01-10T03:54:21.609Z,96.80
2023-01-10T03:56:51.326Z,96.90
2023-01-10T03:59:22.341Z,96.90
2023-01-10T04:01:49.685Z,97.10
2023-01-10T04:04:17.348Z,97.30
2023-01-10T04:06:45.096Z,97.40
2023-01-10T04:09:12.781Z,97.40
2023-01-10T04:11:40.104Z,97.40
2023-01-10T04:14:07.570Z,97.30
2023-01-10T04:16:35.041Z,97.70
2023-01-10T04:19:02.397Z,97.60
2023-01-10T04:21:29.653Z,97.60
2023-01-10T04:23:56.962Z,97.70
2023-01-10T04:26:24.328Z,97.70
2023-01-10T04:28:51.793Z,97.70
2023-01-10T04:31:19.143Z,97.60
2023-01-10T04:33:46.464Z,97.80
2023-01-10T04:36:13.760Z,97.90
2023-01-10T04:38:41.179Z,97.60
2023-01-10T04:41:10.209Z,97.60
2023-01-10T04:43:37.496Z,97.50
2023-01-10T04:46:05.120Z,97.40
2023-01-10T04:48:33.387Z,97.40
2023-01-10T04:51:00.719Z,97.20
2023-01-10T04:53:28.255Z,97.10
2023-01-10T04:55:56.025Z,96.90
2023-01-10T04:58:23.301Z,96.90
2023-01-10T05:00:52.652Z,97.00
2023-01-10T05:03:20.427Z,97.00
2023-01-10T05:05:47.780Z,97.10
2023-01-10T05:08:15.050Z,97.20
2023-01-10T05:10:42.351Z,97.40
2023-01-10T05:13:09.964Z,97.80
2023-01-10T05:15:37.268Z,97.50
2023-01-10T05:18:04.581Z,97.60
2023-01-10T05:20:32.008Z,97.60
2023-01-10T05:22:59.431Z,97.70
2023-01-10T05:25:27.061Z,97.70
2023-01-10T05:27:55.182Z,97.50
2023-01-10T05:30:22.524Z,97.40
2023-01-10T05:32:49.767Z,97.40
2023-01-10T05:35:17.446Z,97.30
2023-01-10T05:37:45.622Z,97.20
2023-01-10T05:40:14.569Z,97.20
2023-01-10T05:42:42.457Z,97.00
2023-01-10T05:45:10.202Z,97.00
2023-01-10T05:47:37.624Z,96.90
2023-01-10T05:50:05.338Z,96.80
2023-01-10T05:52:32.737Z,96.80
2023-01-10T05:55:00.013Z,96.90
2023-01-10T05:57:27.325Z,96.80
2023-01-10T05:59:54.645Z,96.80
2023-01-10T06:02:22.909Z,96.70
2023-01-10T06:04:51.653Z,96.70
2023-01-10T06:07:19.248Z,96.40
2023-01-10T06:09:46.947Z,96.30
2023-01-10T06:12:14.839Z,96.30
2023-01-10T06:14:42.225Z,96.40
2023-01-10T06:17:10.338Z,96.40
2023-01-10T06:19:37.833Z,96.70
2023-01-10T06:22:05.085Z,96.70
2023-01-10T06:24:32.355Z,96.50
2023-01-10T06:26:59.841Z,96.60
2023-01-10T06:29:27.194Z,96.50
2023-01-10T06:31:54.652Z,96.50
2023-01-10T06:34:21.986Z,96.60
2023-01-10T06:36:49.815Z,96.50
2023-01-10T06:39:17.089Z,96.40
2023-01-10T06:41:44.437Z,96.30
2023-01-10T06:44:11.827Z,96.30
2023-01-10T06:46:39.109Z,96.60
2023-01-10T06:49:06.781Z,96.20
2023-01-10T06:51:34.499Z,96.00
2023-01-10T06:54:01.780Z,95.70
2023-01-10T06:56:29.195Z,95.90
2023-01-10T06:58:57.006Z,95.80
2023-01-10T07:01:24.554Z,95.90
2023-01-10T07:03:51.937Z,95.90
2023-01-10T07:06:19.343Z,95.90
2023-01-10T07:08:47.865Z,95.90
2023-01-10T07:11:17.059Z,95.70
2023-01-10T07:13:44.394Z,95.60
2023-01-10T07:16:15.063Z,95.60
2023-01-10T07:18:43.482Z,95.60
2023-01-10T07:21:11.247Z,95.50
2023-01-10T07:23:38.851Z,95.60
2023-01-10T07:26:07.969Z,95.50
2023-01-10T07:28:35.721Z,95.50
2023-01-10T07:31:05.892Z,95.40
2023-01-10T07:33:33.418Z,95.30
2023-01-10T07:36:02.114Z,95.20
2023-01-10T07:38:29.971Z,95.30
2023-01-10T07:40:57.428Z,95.30
2023-01-10T07:43:24.719Z,94.90
2023-01-10T07:45:52.140Z,94.80
2023-01-10T07:48:19.902Z,94.70
2023-01-10T07:50:47.310Z,94.50
2023-01-10T07:53:14.576Z,94.50
2023-01-10T07:55:43.516Z,94.30
2023-01-10T07:58:10.770Z,94.30
2023-01-10T08:00:38.220Z,94.20
2023-01-10T08:03:06.536Z,93.80
2023-01-10T08:05:34.081Z,93.90
2023-01-10T08:08:09.187Z,93.80
2023-01-10T08:10:37.780Z,94.00
2023-01-10T08:13:17.769Z,93.80
2023-01-10T08:15:47.357Z,93.90
2023-01-10T08:18:14.994Z,93.80
2023-01-10T08:20:42.314Z,93.90
2023-01-10T08:23:09.812Z,94.00
2023-01-10T08:25:39.381Z,93.90
2023-01-10T08:28:07.419Z,94.20
2023-01-10T08:30:34.889Z,93.90
2023-01-10T08:33:03.528Z,94.00
2023-01-10T08:35:31.387Z,93.70
2023-01-10T08:38:00.095Z,93.50
2023-01-10T08:40:27.691Z,93.80
2023-01-10T08:43:03.310Z,94.20
2023-01-10T08:45:31.015Z,93.90
2023-01-10T08:47:58.449Z,93.50
2023-01-10T08:50:26.385Z,93.00
2023-01-10T08:52:53.767Z,93.10
2023-01-10T08:55:21.115Z,93.10
2023-01-10T08:57:48.494Z,93.10
2023-01-10T09:00:16.068Z,93.10
2023-01-10T09:02:43.553Z,92.60
2023-01-10T09:05:22.279Z,92.10
2023-01-10T09:07:59.183Z,92.10
2023-01-10T09:10:27.016Z,92.40
2023-01-10T09:12:57.363Z,91.90
2023-01-10T09:15:27.580Z,91.90
2023-01-10T09:17:57.088Z,91.80
2023-01-10T09:20:25.805Z,91.80
2023-01-10T09:22:53.715Z,91.70
2023-01-10T09:25:21.555Z,91.70
2023-01-10T09:27:58.044Z,91.30
2023-01-10T09:30:26.391Z,91.30
2023-01-10T09:32:54.740Z,91.20
2023-01-10T09:35:23.346Z,91.20
2023-01-10T09:37:53.456Z,90.90
2023-01-10T09:40:42.001Z,91.10
2023-01-10T09:43:35.164Z,91.00
2023-01-10T09:46:02.571Z,90.80
2023-01-10T09:48:46.659Z,90.60
2023-01-10T09:51:29.051Z,90.40
2023-01-10T09:54:10.783Z,90.30
2023-01-10T09:56:40.998Z,90.50
2023-01-10T09:59:35.793Z,90.30
2023-01-10T10:02:32.789Z,90.20
2023-01-10T10:05:20.997Z,90.10
2023-01-10T10:07:57.782Z,90.20
2023-01-10T10:10:39.218Z,90.00
2023-01-10T10:13:27.810Z,89.90
2023-01-10T10:16:11.401Z,89.60
2023-01-10T10:18:54.179Z,89.60
2023-01-10T10:21:33.994Z,89.20
2023-01-10T10:24:23.673Z,89.30
2023-01-10T10:27:08.596Z,89.40
2023-01-10T10:29:58.008Z,89.50
2023-01-10T10:32:50.938Z,89.00
2023-01-10T10:35:37.438Z,88.80
2023-01-10T10:38:33.955Z,88.70
2023-01-10T10:41:02.264Z,88.30
2023-01-10T10:43:37.723Z,88.50
2023-01-10T10:46:19.074Z,88.00
2023-01-10T10:48:54.349Z,88.40
2023-01-10T10:51:34.181Z,88.00
2023-01-10T10:54:01.566Z,87.90
2023-01-10T10:56:30.085Z,87.50
2023-01-10T10:58:59.942Z,87.30
2023-01-10T11:01:27.637Z,87.10
2023-01-10T11:04:05.684Z,85.90
2023-01-10T11:06:35.538Z,85.70
2023-01-10T11:09:06.067Z,85.40
2023-01-10T11:11:44.443Z,85.10
2023-01-10T11:14:13.383Z,85.00
2023-01-10T11:16:44.899Z,84.50
2023-01-10T11:19:23.971Z,84.10
2023-01-10T11:21:56.143Z,84.30
2023-01-10T11:24:39.728Z,84.10
2023-01-10T11:27:22.033Z,84.00
2023-01-10T11:30:07.164Z,83.90
2023-01-10T11:32:37.137Z,83.30
2023-01-10T11:35:18.046Z,82.70
2023-01-10T11:38:04.169Z,83.90
2023-01-10T11:40:36.244Z,84.20
2023-01-10T11:43:24.575Z,82.00
2023-01-10T11:46:04.211Z,81.90
2023-01-10T11:49:06.347Z,82.20
2023-01-10T11:51:38.014Z,82.20
2023-01-10T11:54:11.111Z,82.10
2023-01-10T11:56:43.262Z,81.80
2023-01-10T11:59:14.413Z,82.00
2023-01-10T12:01:47.947Z,81.80
2023-01-10T12:04:21.141Z,81.60
2023-01-10T12:06:52.122Z,81.60
2023-01-10T12:09:42.352Z,81.30
2023-01-10T12:12:23.334Z,80.80
2023-01-10T12:14:51.548Z,80.30
2023-01-10T12:17:25.981Z,81.00
2023-01-10T12:19:55.514Z,79.90
2023-01-10T12:22:30.261Z,79.80
2023-01-10T12:25:00.202Z,80.30
2023-01-10T12:27:29.718Z,80.30
2023-01-10T12:30:12.534Z,79.60
2023-01-10T12:32:47.004Z,79.10
2023-01-10T12:35:25.787Z,78.80
2023-01-10T12:38:06.422Z,79.50
2023-01-10T12:40:44.782Z,77.80
2023-01-10T12:43:36.219Z,77.60
2023-01-10T12:46:29.634Z,78.20
2023-01-10T12:49:08.454Z,77.50
2023-01-10T12:51:36.768Z,77.30
2023-01-10T12:54:13.723Z,75.90
2023-01-10T12:56:41.929Z,76.30
2023-01-10T12:59:36.365Z,76.40
2023-01-10T13:02:14.296Z,75.90
2023-01-10T13:04:47.079Z,76.40
2023-01-10T13:07:16.393Z,75.30
2023-01-10T13:09:45.694Z,75.60
2023-01-10T13:12:24.290Z,75.70
2023-01-10T13:15:14.868Z,74.90
2023-01-10T13:17:55.085Z,74.10
2023-01-10T13:20:22.320Z,74.50
2023-01-10T13:22:52.655Z,74.00
2023-01-10T13:25:24.899Z,73.80
2023-01-10T13:28:06.397Z,74.00
2023-01-10T13:30:43.205Z,73.60
2023-01-10T13:33:40.437Z,74.40
2023-01-10T13:36:24.399Z,75.00
2023-01-10T13:38:57.386Z,73.60
2023-01-10T13:42:14.989Z,74.20
2023-01-10T13:45:11.980Z,73.70
2023-01-10T13:47:39.476Z,74.10
2023-01-10T13:50:34.691Z,74.40
2023-01-10T13:53:05.365Z,74.20
2023-01-10T13:55:36.807Z,74.00
2023-01-10T13:58:16.051Z,74.80
2023-01-10T14:01:02.409Z,75.40
2023-01-10T14:03:47.932Z,75.90
2023-01-10T14:06:29.085Z,76.10
2023-01-10T14:09:14.276Z,75.90
2023-01-10T14:11:44.480Z,76.20
2023-01-10T14:14:26.766Z,76.50
2023-01-10T14:16:57.456Z,76.60
2023-01-10T14:19:31.030Z,76.40
2023-01-10T14:22:01.705Z,76.90
2023-01-10T14:24:43.454Z,77.40
2023-01-10T14:27:17.144Z,77.60
2023-01-10T14:29:54.919Z,78.00
2023-01-10T14:32:30.506Z,77.90
2023-01-10T14:35:01.115Z,77.90
2023-01-10T14:37:37.861Z,78.50
2023-01-10T14:40:15.465Z,78.80
2023-01-10T14:42:44.472Z,78.90
2023-01-10T14:45:39.566Z,81.00
2023-01-10T14:48:31.176Z,80.30
2023-01-10T14:51:09.124Z,80.70
2023-01-10T14:53:36.795Z,81.00
2023-01-10T14:56:04.198Z,81.00
2023-01-10T14:58:31.459Z,80.40
2023-01-10T15:00:58.955Z,81.20
2023-01-10T15:03:26.535Z,80.50
2023-01-10T15:05:57.339Z,80.70
2023-01-10T15:08:27.768Z,81.00
2023-01-10T15:11:09.197Z,80.90
2023-01-10T15:13:46.024Z,80.50
2023-01-10T15:18:49.901Z,81.00
2023-01-10T15:21:21.991Z,80.80
2023-01-10T15:23:50.495Z,81.30
2023-01-10T15:26:21.452Z,81.50
2023-01-10T15:29:14.496Z,81.50
2023-01-10T15:31:42.533Z,81.80
2023-01-10T15:34:15.586Z,82.00
2023-01-10T15:36:50.980Z,82.00
2023-01-10T15:39:25.258Z,82.10
2023-01-10T15:41:59.309Z,82.20
2023-01-10T15:44:38.285Z,82.40
2023-01-10T15:47:36.030Z,82.30
2023-01-10T15:50:21.463Z,82.70
2023-01-10T15:53:00.837Z,83.80
2023-01-10T15:55:52.494Z,83.20
2023-01-10T15:58:36.525Z,83.10
2023-01-10T16:01:04.683Z,83.30
2023-01-10T16:03:37.015Z,83.30
2023-01-10T16:06:09.959Z,83.10
2023-01-10T16:08:38.639Z,83.00
2023-01-10T16:11:43.519Z,83.00
2023-01-10T16:14:11.091Z,82.90
2023-01-10T16:16:38.620Z,82.90
2023-01-10T16:19:06.069Z,83.00
2023-01-10T16:21:40.316Z,82.80
2023-01-10T16:24:13.799Z,82.80
2023-01-10T16:26:41.819Z,83.10
2023-01-10T16:29:10.687Z,83.20
2023-01-10T16:31:37.954Z,83.20
2023-01-10T16:34:05.622Z,83.50
2023-01-10T16:36:32.947Z,83.30
2023-01-10T16:39:06.632Z,83.50
2023-01-10T16:41:52.800Z,83.30
2023-01-10T16:44:20.070Z,83.60
2023-01-10T16:46:48.137Z,83.40
2023-01-10T16:49:15.814Z,83.60
2023-01-10T16:51:43.101Z,83.70
2023-01-10T16:54:19.605Z,84.70
2023-01-10T16:56:47.823Z,84.20
2023-01-10T16:59:20.395Z,84.00
2023-01-10T17:01:51.994Z,84.30
2023-01-10T17:04:25.092Z,84.10
2023-01-10T17:06:52.461Z,84.10
2023-01-10T17:09:28.760Z,84.30
2023-01-10T17:12:03.421Z,84.40
2023-01-10T17:14:33.416Z,84.40
2023-01-10T17:17:03.410Z,84.20
2023-01-10T17:19:31.463Z,84.30
2023-01-10T17:21:58.883Z,85.00
2023-01-10T17:24:27.103Z,84.60
2023-01-10T17:26:54.437Z,84.50
2023-01-10T17:29:23.333Z,84.50
2023-01-10T17:31:51.000Z,84.20
2023-01-10T17:34:18.708Z,84.60
2023-01-10T17:36:45.954Z,83.70
2023-01-10T17:39:13.402Z,83.60
2023-01-10T17:41:40.659Z,83.60
2023-01-10T17:44:08.128Z,83.10
2023-01-10T17:46:35.420Z,82.40
2023-01-10T17:49:03.571Z,82.60
2023-01-10T17:51:30.932Z,82.50
2023-01-10T17:53:58.673Z,83.10
2023-01-10T17:56:26.091Z,82.50
2023-01-10T17:58:53.833Z,82.60
2023-01-10T18:01:26.127Z,82.10
2023-01-10T18:03:54.007Z,82.80
2023-01-10T18:06:24.491Z,82.20
2023-01-10T18:08:53.176Z,82.20
2023-01-10T18:11:21.275Z,83.10
2023-01-10T18:13:48.910Z,82.30
2023-01-10T18:16:16.361Z,81.70
2023-01-10T18:18:43.698Z,81.00
2023-01-10T18:21:16.297Z,81.20
2023-01-10T18:23:44.344Z,80.10
2023-01-10T18:26:12.591Z,79.30
2023-01-10T18:28:43.195Z,79.10
2023-01-10T18:31:18.488Z,79.00
2023-01-10T18:33:47.239Z,78.80
2023-01-10T18:36:22.987Z,76.90
2023-01-10T18:38:51.935Z,76.50
2023-01-10T18:41:20.772Z,76.50
2023-01-10T18:43:48.632Z,76.00
2023-01-10T18:46:18.997Z,75.80
2023-01-10T18:48:47.500Z,75.10
2023-01-10T18:51:14.850Z,74.90
2023-01-10T18:53:43.579Z,75.10
2023-01-10T18:56:12.232Z,74.80
2023-01-10T18:58:41.268Z,74.70
2023-01-10T19:01:14.253Z,75.00
2023-01-10T19:03:42.680Z,75.10
2023-01-10T19:06:12.002Z,75.80
2023-01-10T19:08:39.627Z,75.50
2023-01-10T19:11:13.847Z,75.40
2023-01-10T19:13:43.155Z,75.00
2023-01-10T19:16:22.432Z,74.80
2023-01-10T19:19:05.970Z,74.90
2023-01-10T19:21:34.298Z,75.00
2023-01-10T19:24:04.354Z,75.70
2023-01-10T19:26:32.147Z,76.80
2023-01-10T19:28:59.501Z,78.30
2023-01-10T19:31:29.088Z,78.70
2023-01-10T19:34:00.672Z,78.20
2023-01-10T19:36:29.509Z,78.50
2023-01-10T19:38:58.515Z,78.50
2023-01-10T19:41:28.187Z,78.80
2023-01-10T19:43:57.667Z,78.80
2023-01-10T19:46:25.323Z,78.50
2023-01-10T19:48:54.960Z,78.60
2023-01-10T19:51:22.415Z,78.80
2023-01-10T19:53:49.786Z,78.60
2023-01-10T19:56:22.172Z,78.90
2023-01-10T19:58:50.079Z,79.00
2023-01-10T20:01:23.853Z,79.50
2023-01-10T20:03:52.152Z,79.90
2023-01-10T20:06:22.076Z,80.40
2023-01-10T20:08:49.674Z,80.90
2023-01-10T20:11:18.115Z,81.30
2023-01-10T20:13:45.649Z,81.70
2023-01-10T20:16:15.193Z,82.00
2023-01-10T20:18:43.381Z,82.40
2023-01-10T20:21:13.782Z,82.50
2023-01-10T20:23:42.258Z,82.80
2023-01-10T20:26:31.202Z,82.70
2023-01-10T20:29:02.997Z,82.40
2023-01-10T20:31:31.234Z,82.20
2023-01-10T20:33:58.990Z,82.00
2023-01-10T20:36:27.324Z,82.00
2023-01-10T20:38:55.381Z,81.80
2023-01-10T20:41:28.668Z,81.80
2023-01-10T20:43:57.894Z,81.80
2023-01-10T20:46:28.258Z,81.80
2023-01-10T20:48:56.737Z,82.00
2023-01-10T20:51:31.864Z,82.10
2023-01-10T20:54:00.121Z,82.10
2023-01-10T20:56:29.907Z,81.90
2023-01-10T20:58:57.877Z,81.80
2023-01-10T21:01:34.445Z,81.70
2023-01-10T21:04:05.600Z,81.40
2023-01-10T21:06:34.406Z,81.30
2023-01-10T21:09:02.843Z,80.80
2023-01-10T21:11:30.314Z,80.20
2023-01-10T21:13:57.798Z,80.10
2023-01-10T21:16:25.627Z,79.90
2023-01-10T21:18:53.439Z,79.70
2023-01-10T21:21:24.834Z,79.60
2023-01-10T21:23:54.834Z,78.90
2023-01-10T21:26:22.459Z,78.50
2023-01-10T21:28:50.195Z,78.20
2023-01-10T21:31:20.519Z,77.90
2023-01-10T21:33:49.214Z,77.70
2023-01-10T21:36:17.589Z,77.80
2023-01-10T21:38:45.180Z,77.70
2023-01-10T21:41:35.713Z,77.70
2023-01-10T21:44:04.926Z,77.90
2023-01-10T21:46:32.579Z,77.70
2023-01-10T21:49:02.500Z,77.40
2023-01-10T21:51:29.872Z,77.40
2023-01-10T21:53:57.826Z,77.20
2023-01-10T21:56:25.381Z,77.30
2023-01-10T21:58:52.728Z,77.30
2023-01-10T22:01:20.238Z,77.30
2023-01-10T22:03:47.599Z,77.40
2023-01-10T22:06:15.323Z,77.00
2023-01-10T22:08:42.977Z,77.00
2023-01-10T22:11:11.137Z,76.40
2023-01-10T22:13:39.393Z,76.20
2023-01-10T22:16:07.315Z,75.70
2023-01-10T22:18:34.820Z,75.70
2023-01-10T22:21:02.417Z,75.20
2023-01-10T22:23:31.010Z,74.90
2023-01-10T22:26:04.466Z,74.60
2023-01-10T22:28:32.175Z,74.40
2023-01-10T22:31:00.145Z,75.00
2023-01-10T22:33:32.902Z,74.00
2023-01-10T22:36:09.948Z,73.60
2023-01-10T22:38:37.323Z,73.90
2023-01-10T22:41:09.943Z,73.20
2023-01-10T22:43:37.384Z,73.20
2023-01-10T22:46:06.193Z,73.30
2023-01-10T22:48:35.646Z,72.90
2023-01-10T22:51:05.391Z,73.40
2023-01-10T22:53:33.367Z,73.50
2023-01-10T22:56:05.407Z,73.50
2023-01-10T22:58:33.162Z,73.40
2023-01-10T23:01:07.131Z,73.30
2023-01-10T23:03:34.938Z,72.60
2023-01-10T23:06:02.418Z,72.30
2023-01-10T23:08:29.691Z,71.80
2023-01-10T23:10:57.135Z,72.20
2023-01-10T23:13:25.027Z,72.50
2023-01-10T23:16:06.821Z,72.40
2023-01-10T23:18:34.592Z,72.50
2023-01-10T23:21:02.291Z,72.00
2023-01-10T23:23:30.468Z,71.90
2023-01-10T23:26:02.619Z,72.20
2023-01-10T23:28:30.989Z,72.50
2023-01-10T23:30:58.731Z,71.80
2023-01-10T23:33:26.371Z,72.00
2023-01-10T23:35:53.824Z,72.10
2023-01-10T23:38:21.257Z,72.00
2023-01-10T23:40:48.768Z,72.60
2023-01-10T23:43:16.621Z,72.20
2023-01-10T23:45:44.269Z,72.20
2023-01-10T23:48:12.571Z,72.40
2023-01-10T23:50:40.329Z,72.50
2023-01-10T23:53:08.073Z,72.10
2023-01-10T23:55:35.836Z,72.10
2023-01-10T23:58:03.260Z,72.30
